Date,TemperatureHighF,TemperatureAvgF,TemperatureLowF,DewpointHighF,DewpointAvgF,DewpointLowF,HumidityHigh,HumidityAvg,HumidityLow,PressureMaxIn,PressureMinIn,WindSpeedMaxMPH,WindSpeedAvgMPH,GustSpeedMaxMPH,PrecipitationSumIn
2013-2-1,45,37,27,33,21,10,83,56,26,30.91,30.65,10,2,12,0.00
2013-2-2,55,38,24,44,29,20,98,75,38,30.85,30.58,10,0,10,0.05
2013-2-3,62,43,30,42,33,30,99,74,34,30.66,30.52,12,1,13,0.01
2013-2-4,53,42,31,40,34,29,92,74,46,30.59,30.43,4,0,5,0.00
2013-2-5,57,50,42,54,47,38,98,89,77,30.50,30.40,2,0,2,0.03
2013-2-6,71,55,47,51,46,37,99,76,34,30.62,30.48,8,0,8,0.01
2013-2-7,52,50,48,50,48,42,97,92,71,30.53,30.32,11,1,11,0.13
2013-2-8,54,48,33,52,45,32,98,91,73,30.69,30.36,11,1,12,0.07
2013-2-9,66,44,28,42,34,27,98,74,28,30.77,30.61,8,0,9,0.00
2013-2-10,58,54,48,57,48,38,99,81,57,30.62,30.38,8,1,13,1.55
2013-2-11,58,54,49,58,53,49,99,98,95,30.58,30.40,8,0,8,0.56
2013-2-12,50,46,44,49,44,40,99,92,74,30.60,30.20,12,1,12,0.59
2013-2-13,49,45,34,48,42,33,99,89,79,30.48,30.15,11,1,11,0.02
2013-2-14,60,43,32,42,37,32,99,82,47,30.58,30.48,6,0,7,0.00
2013-2-15,68,47,31,43,36,30,99,71,37,30.60,30.47,12,1,12,0.00
2013-2-16,47,39,28,36,23,14,75,54,31,30.70,30.49,18,3,20,0.00
2013-2-17,54,36,23,30,20,11,88,58,22,30.81,30.68,9,0,9,0.00
2013-2-18,65,47,27,39,32,23,90,60,35,30.77,30.40,9,1,11,0.00
2013-2-19,60,49,37,49,37,22,98,66,31,30.68,30.38,14,1,14,0.54
2013-2-20,47,38,27,28,22,14,90,57,29,30.73,30.58,11,1,11,0.00
2013-2-21,64,48,30,48,31,21,95,60,24,30.62,30.30,10,1,10,1.20
2013-2-22,54,51,48,52,50,47,97,96,92,30.52,30.35,10,1,10,0.58
2013-2-23,61,49,41,53,47,40,98,92,74,30.40,30.28,9,1,9,0.15
2013-2-24,69,49,33,45,40,32,99,74,36,30.50,30.34,8,0,8,0.01
2013-2-25,62,52,45,53,45,32,94,77,51,30.35,29.96,16,2,19,0.66
2013-2-26,52,48,44,51,42,35,97,79,66,30.28,29.89,21,2,22,0.42
2013-2-27,64,49,36,41,36,33,92,64,38,30.39,30.27,16,1,16,0.00
2013-2-28,48,41,37,35,31,28,85,68,52,30.52,30.36,17,2,17,0.00